<?xml version="1.0" encoding="UTF-8" standalone="no" ?>
<gpx xmlns="http://www.topografix.com/GPX/1/1" xmlns:xsi="http://www.w3.org/2001/XMLSchema-instance" xsi:schemaLocation="http://www.topografix.com/GPX/1/1 http://www.topografix.com/GPX/1/1/gpx.xsd" version="1.1" creator="VisuGPX - https://www.visugpx.com">
  <metadata>
    <name>2020-06-27 12:17:15</name>
  </metadata>
  <trk>
    <name><![CDATA[2020-06-27 12:17:15]]></name>
    <trkseg>
      <trkpt lat="44.82615" lon="4.68019">
        <ele>156.35</ele>
        <time>2020-06-27T07:37:40Z</time>
      </trkpt>
      <trkpt lat="44.82618" lon="4.68018">
        <ele>159.72</ele>
        <time>2020-06-27T07:38:09Z</time>
      </trkpt>
      <trkpt lat="44.82616" lon="4.6802">
        <ele>156.83</ele>
        <time>2020-06-27T07:38:33Z</time>
      </trkpt>
      <trkpt lat="44.82614" lon="4.6802">
        <ele>156.35</ele>
        <time>2020-06-27T07:39:07Z</time>
      </trkpt>
      <trkpt lat="44.82613" lon="4.68025">
        <ele>152.51</ele>
        <time>2020-06-27T07:39:33Z</time>
      </trkpt>
      <trkpt lat="44.82616" lon="4.68025">
        <ele>157.79</ele>
        <time>2020-06-27T07:40:05Z</time>
      </trkpt>
      <trkpt lat="44.82617" lon="4.68021">
        <ele>158.75</ele>
        <time>2020-06-27T07:40:21Z</time>
      </trkpt>
      <trkpt lat="44.82617" lon="4.68019">
        <ele>158.27</ele>
        <time>2020-06-27T07:40:40Z</time>
      </trkpt>
      <trkpt lat="44.82615" lon="4.6802">
        <ele>159.72</ele>
        <time>2020-06-27T07:40:51Z</time>
      </trkpt>
      <trkpt lat="44.82616" lon="4.68022">
        <ele>160.2</ele>
        <time>2020-06-27T07:40:53Z</time>
      </trkpt>
      <trkpt lat="44.8262" lon="4.6803">
        <ele>157.31</ele>
        <time>2020-06-27T07:41:05Z</time>
      </trkpt>
      <trkpt lat="44.82627" lon="4.68043">
        <ele>156.35</ele>
        <time>2020-06-27T07:41:20Z</time>
      </trkpt>
      <trkpt lat="44.82639" lon="4.68048">
        <ele>158.27</ele>
        <time>2020-06-27T07:41:35Z</time>
      </trkpt>
      <trkpt lat="44.82646" lon="4.68042">
        <ele>158.75</ele>
        <time>2020-06-27T07:41:50Z</time>
      </trkpt>
      <trkpt lat="44.82646" lon="4.68039">
        <ele>158.27</ele>
        <time>2020-06-27T07:41:52Z</time>
      </trkpt>
      <trkpt lat="44.82646" lon="4.68027">
        <ele>158.27</ele>
        <time>2020-06-27T07:42:07Z</time>
      </trkpt>
      <trkpt lat="44.82646" lon="4.68025">
        <ele>155.39</ele>
        <time>2020-06-27T07:42:25Z</time>
      </trkpt>
      <trkpt lat="44.82649" lon="4.68024">
        <ele>154.91</ele>
        <time>2020-06-27T07:42:42Z</time>
      </trkpt>
      <trkpt lat="44.82651" lon="4.68025">
        <ele>153.47</ele>
        <time>2020-06-27T07:43:10Z</time>
      </trkpt>
      <trkpt lat="44.82649" lon="4.68023">
        <ele>155.87</ele>
        <time>2020-06-27T07:43:46Z</time>
      </trkpt>
      <trkpt lat="44.82649" lon="4.68023">
        <ele>157.31</ele>
        <time>2020-06-27T07:44:01Z</time>
      </trkpt>
      <trkpt lat="44.82649" lon="4.6802">
        <ele>159.72</ele>
        <time>2020-06-27T07:44:26Z</time>
      </trkpt>
      <trkpt lat="44.82648" lon="4.6802">
        <ele>159.72</ele>
        <time>2020-06-27T07:44:46Z</time>
      </trkpt>
      <trkpt lat="44.82648" lon="4.68022">
        <ele>157.79</ele>
        <time>2020-06-27T07:45:06Z</time>
      </trkpt>
      <trkpt lat="44.82647" lon="4.68022">
        <ele>159.24</ele>
        <time>2020-06-27T07:45:32Z</time>
      </trkpt>
      <trkpt lat="44.82647" lon="4.68022">
        <ele>159.24</ele>
        <time>2020-06-27T07:45:55Z</time>
      </trkpt>
      <trkpt lat="44.82653" lon="4.68024">
        <ele>158.75</ele>
        <time>2020-06-27T07:46:13Z</time>
      </trkpt>
      <trkpt lat="44.82657" lon="4.68003">
        <ele>158.75</ele>
        <time>2020-06-27T07:46:30Z</time>
      </trkpt>
      <trkpt lat="44.82653" lon="4.67971">
        <ele>160.68</ele>
        <time>2020-06-27T07:46:49Z</time>
      </trkpt>
      <trkpt lat="44.8264" lon="4.67938">
        <ele>159.24</ele>
        <time>2020-06-27T07:47:09Z</time>
      </trkpt>
      <trkpt lat="44.82633" lon="4.67916">
        <ele>159.24</ele>
        <time>2020-06-27T07:47:26Z</time>
      </trkpt>
      <trkpt lat="44.82634" lon="4.67903">
        <ele>160.68</ele>
        <time>2020-06-27T07:47:38Z</time>
      </trkpt>
      <trkpt lat="44.82632" lon="4.67865">
        <ele>162.12</ele>
        <time>2020-06-27T07:47:59Z</time>
      </trkpt>
      <trkpt lat="44.82634" lon="4.67835">
        <ele>162.6</ele>
        <time>2020-06-27T07:48:15Z</time>
      </trkpt>
      <trkpt lat="44.82633" lon="4.67793">
        <ele>163.08</ele>
        <time>2020-06-27T07:48:37Z</time>
      </trkpt>
      <trkpt lat="44.82638" lon="4.6777">
        <ele>167.89</ele>
        <time>2020-06-27T07:48:53Z</time>
      </trkpt>
      <trkpt lat="44.8265" lon="4.67757">
        <ele>171.73</ele>
        <time>2020-06-27T07:49:11Z</time>
      </trkpt>
      <trkpt lat="44.82674" lon="4.67739">
        <ele>166.45</ele>
        <time>2020-06-27T07:49:30Z</time>
      </trkpt>
      <trkpt lat="44.827" lon="4.67727">
        <ele>164.52</ele>
        <time>2020-06-27T07:49:48Z</time>
      </trkpt>
      <trkpt lat="44.82722" lon="4.67715">
        <ele>163.56</ele>
        <time>2020-06-27T07:50:06Z</time>
      </trkpt>
      <trkpt lat="44.82741" lon="4.67703">
        <ele>163.08</ele>
        <time>2020-06-27T07:50:22Z</time>
      </trkpt>
      <trkpt lat="44.82755" lon="4.67695">
        <ele>162.6</ele>
        <time>2020-06-27T07:50:39Z</time>
      </trkpt>
      <trkpt lat="44.82771" lon="4.67686">
        <ele>165</ele>
        <time>2020-06-27T07:50:53Z</time>
      </trkpt>
      <trkpt lat="44.82783" lon="4.67681">
        <ele>165.48</ele>
        <time>2020-06-27T07:51:06Z</time>
      </trkpt>
      <trkpt lat="44.8279" lon="4.67675">
        <ele>165</ele>
        <time>2020-06-27T07:51:19Z</time>
      </trkpt>
      <trkpt lat="44.82809" lon="4.67669">
        <ele>166.93</ele>
        <time>2020-06-27T07:51:38Z</time>
      </trkpt>
      <trkpt lat="44.82828" lon="4.67659">
        <ele>169.33</ele>
        <time>2020-06-27T07:51:53Z</time>
      </trkpt>
      <trkpt lat="44.82847" lon="4.67639">
        <ele>174.62</ele>
        <time>2020-06-27T07:52:12Z</time>
      </trkpt>
      <trkpt lat="44.82862" lon="4.67632">
        <ele>176.54</ele>
        <time>2020-06-27T07:52:27Z</time>
      </trkpt>
      <trkpt lat="44.82871" lon="4.6763">
        <ele>179.9</ele>
        <time>2020-06-27T07:52:41Z</time>
      </trkpt>
      <trkpt lat="44.82887" lon="4.67623">
        <ele>184.71</ele>
        <time>2020-06-27T07:52:56Z</time>
      </trkpt>
      <trkpt lat="44.82913" lon="4.67604">
        <ele>185.67</ele>
        <time>2020-06-27T07:53:15Z</time>
      </trkpt>
      <trkpt lat="44.82935" lon="4.67598">
        <ele>186.15</ele>
        <time>2020-06-27T07:53:31Z</time>
      </trkpt>
      <trkpt lat="44.82963" lon="4.67592">
        <ele>190.48</ele>
        <time>2020-06-27T07:53:51Z</time>
      </trkpt>
      <trkpt lat="44.82982" lon="4.67586">
        <ele>189.52</ele>
        <time>2020-06-27T07:54:06Z</time>
      </trkpt>
      <trkpt lat="44.82984" lon="4.67584">
        <ele>189.04</ele>
        <time>2020-06-27T07:54:09Z</time>
      </trkpt>
      <trkpt lat="44.82995" lon="4.67576">
        <ele>187.11</ele>
        <time>2020-06-27T07:54:15Z</time>
      </trkpt>
      <trkpt lat="44.83007" lon="4.67572">
        <ele>186.15</ele>
        <time>2020-06-27T07:54:24Z</time>
      </trkpt>
      <trkpt lat="44.83035" lon="4.67565">
        <ele>185.67</ele>
        <time>2020-06-27T07:54:43Z</time>
      </trkpt>
      <trkpt lat="44.83055" lon="4.67566">
        <ele>192.4</ele>
        <time>2020-06-27T07:55:01Z</time>
      </trkpt>
      <trkpt lat="44.83055" lon="4.67565">
        <ele>196.25</ele>
        <time>2020-06-27T07:55:16Z</time>
      </trkpt>
      <trkpt lat="44.83066" lon="4.67561">
        <ele>198.65</ele>
        <time>2020-06-27T07:55:41Z</time>
      </trkpt>
      <trkpt lat="44.83068" lon="4.67533">
        <ele>190.48</ele>
        <time>2020-06-27T07:56:07Z</time>
      </trkpt>
      <trkpt lat="44.83061" lon="4.67524">
        <ele>189.04</ele>
        <time>2020-06-27T07:56:30Z</time>
      </trkpt>
      <trkpt lat="44.83066" lon="4.67555">
        <ele>182.31</ele>
        <time>2020-06-27T07:56:48Z</time>
      </trkpt>
      <trkpt lat="44.83076" lon="4.6756">
        <ele>177.98</ele>
        <time>2020-06-27T07:56:59Z</time>
      </trkpt>
      <trkpt lat="44.83089" lon="4.67557">
        <ele>184.23</ele>
        <time>2020-06-27T07:57:16Z</time>
      </trkpt>
      <trkpt lat="44.83102" lon="4.67539">
        <ele>188.56</ele>
        <time>2020-06-27T07:57:32Z</time>
      </trkpt>
      <trkpt lat="44.83117" lon="4.67523">
        <ele>189.52</ele>
        <time>2020-06-27T07:57:45Z</time>
      </trkpt>
      <trkpt lat="44.83135" lon="4.67505">
        <ele>190.48</ele>
        <time>2020-06-27T07:58:03Z</time>
      </trkpt>
      <trkpt lat="44.83153" lon="4.67491">
        <ele>190</ele>
        <time>2020-06-27T07:58:19Z</time>
      </trkpt>
      <trkpt lat="44.83173" lon="4.67479">
        <ele>190.96</ele>
        <time>2020-06-27T07:58:35Z</time>
      </trkpt>
      <trkpt lat="44.83179" lon="4.67475">
        <ele>192.4</ele>
        <time>2020-06-27T07:58:41Z</time>
      </trkpt>
      <trkpt lat="44.83196" lon="4.6746">
        <ele>195.77</ele>
        <time>2020-06-27T07:58:58Z</time>
      </trkpt>
      <trkpt lat="44.83198" lon="4.67458">
        <ele>195.28</ele>
        <time>2020-06-27T07:58:59Z</time>
      </trkpt>
      <trkpt lat="44.83214" lon="4.67438">
        <ele>194.8</ele>
        <time>2020-06-27T07:59:14Z</time>
      </trkpt>
      <trkpt lat="44.83227" lon="4.67424">
        <ele>198.65</ele>
        <time>2020-06-27T07:59:29Z</time>
      </trkpt>
      <trkpt lat="44.83241" lon="4.67411">
        <ele>204.9</ele>
        <time>2020-06-27T07:59:46Z</time>
      </trkpt>
      <trkpt lat="44.83261" lon="4.67397">
        <ele>207.3</ele>
        <time>2020-06-27T08:00:05Z</time>
      </trkpt>
      <trkpt lat="44.8327" lon="4.67385">
        <ele>204.42</ele>
        <time>2020-06-27T08:00:23Z</time>
      </trkpt>
      <trkpt lat="44.83269" lon="4.67385">
        <ele>203.46</ele>
        <time>2020-06-27T08:00:26Z</time>
      </trkpt>
      <trkpt lat="44.83271" lon="4.67372">
        <ele>205.38</ele>
        <time>2020-06-27T08:00:41Z</time>
      </trkpt>
      <trkpt lat="44.83271" lon="4.67372">
        <ele>205.86</ele>
        <time>2020-06-27T08:00:42Z</time>
      </trkpt>
      <trkpt lat="44.83257" lon="4.67368">
        <ele>210.67</ele>
        <time>2020-06-27T08:00:59Z</time>
      </trkpt>
      <trkpt lat="44.83237" lon="4.67374">
        <ele>213.55</ele>
        <time>2020-06-27T08:01:16Z</time>
      </trkpt>
      <trkpt lat="44.83224" lon="4.67371">
        <ele>213.55</ele>
        <time>2020-06-27T08:01:30Z</time>
      </trkpt>
      <trkpt lat="44.83213" lon="4.67364">
        <ele>211.63</ele>
        <time>2020-06-27T08:01:43Z</time>
      </trkpt>
      <trkpt lat="44.83204" lon="4.67347">
        <ele>213.55</ele>
        <time>2020-06-27T08:01:59Z</time>
      </trkpt>
      <trkpt lat="44.83197" lon="4.67327">
        <ele>214.99</ele>
        <time>2020-06-27T08:02:13Z</time>
      </trkpt>
      <trkpt lat="44.83194" lon="4.67307">
        <ele>219.32</ele>
        <time>2020-06-27T08:02:29Z</time>
      </trkpt>
      <trkpt lat="44.83193" lon="4.67288">
        <ele>222.2</ele>
        <time>2020-06-27T08:02:44Z</time>
      </trkpt>
      <trkpt lat="44.83186" lon="4.67273">
        <ele>226.05</ele>
        <time>2020-06-27T08:02:58Z</time>
      </trkpt>
      <trkpt lat="44.83178" lon="4.67254">
        <ele>225.57</ele>
        <time>2020-06-27T08:03:11Z</time>
      </trkpt>
      <trkpt lat="44.83173" lon="4.6723">
        <ele>227.97</ele>
        <time>2020-06-27T08:03:26Z</time>
      </trkpt>
      <trkpt lat="44.83173" lon="4.67208">
        <ele>230.37</ele>
        <time>2020-06-27T08:03:41Z</time>
      </trkpt>
      <trkpt lat="44.83173" lon="4.6719">
        <ele>232.78</ele>
        <time>2020-06-27T08:03:56Z</time>
      </trkpt>
      <trkpt lat="44.83179" lon="4.67168">
        <ele>238.06</ele>
        <time>2020-06-27T08:04:14Z</time>
      </trkpt>
      <trkpt lat="44.83177" lon="4.67156">
        <ele>242.87</ele>
        <time>2020-06-27T08:04:28Z</time>
      </trkpt>
      <trkpt lat="44.83177" lon="4.6714">
        <ele>248.16</ele>
        <time>2020-06-27T08:04:43Z</time>
      </trkpt>
      <trkpt lat="44.83168" lon="4.67125">
        <ele>250.08</ele>
        <time>2020-06-27T08:04:59Z</time>
      </trkpt>
      <trkpt lat="44.83159" lon="4.67103">
        <ele>250.08</ele>
        <time>2020-06-27T08:05:15Z</time>
      </trkpt>
      <trkpt lat="44.83155" lon="4.67078">
        <ele>253.44</ele>
        <time>2020-06-27T08:05:34Z</time>
      </trkpt>
      <trkpt lat="44.83155" lon="4.67052">
        <ele>257.77</ele>
        <time>2020-06-27T08:05:51Z</time>
      </trkpt>
      <trkpt lat="44.83145" lon="4.67037">
        <ele>260.17</ele>
        <time>2020-06-27T08:06:06Z</time>
      </trkpt>
      <trkpt lat="44.83129" lon="4.67004">
        <ele>257.29</ele>
        <time>2020-06-27T08:06:23Z</time>
      </trkpt>
      <trkpt lat="44.83125" lon="4.66993">
        <ele>254.89</ele>
        <time>2020-06-27T08:06:28Z</time>
      </trkpt>
      <trkpt lat="44.83116" lon="4.6697">
        <ele>254.41</ele>
        <time>2020-06-27T08:06:42Z</time>
      </trkpt>
      <trkpt lat="44.83121" lon="4.66936">
        <ele>257.77</ele>
        <time>2020-06-27T08:07:02Z</time>
      </trkpt>
      <trkpt lat="44.83122" lon="4.66934">
        <ele>258.73</ele>
        <time>2020-06-27T08:07:04Z</time>
      </trkpt>
      <trkpt lat="44.83135" lon="4.66915">
        <ele>267.86</ele>
        <time>2020-06-27T08:07:22Z</time>
      </trkpt>
      <trkpt lat="44.83137" lon="4.66911">
        <ele>268.83</ele>
        <time>2020-06-27T08:07:24Z</time>
      </trkpt>
      <trkpt lat="44.8314" lon="4.66897">
        <ele>269.79</ele>
        <time>2020-06-27T08:07:31Z</time>
      </trkpt>
      <trkpt lat="44.83131" lon="4.66881">
        <ele>272.67</ele>
        <time>2020-06-27T08:07:46Z</time>
      </trkpt>
      <trkpt lat="44.83121" lon="4.66867">
        <ele>277</ele>
        <time>2020-06-27T08:08:01Z</time>
      </trkpt>
      <trkpt lat="44.83104" lon="4.66853">
        <ele>279.4</ele>
        <time>2020-06-27T08:08:16Z</time>
      </trkpt>
      <trkpt lat="44.83103" lon="4.66851">
        <ele>278.44</ele>
        <time>2020-06-27T08:08:17Z</time>
      </trkpt>
      <trkpt lat="44.83094" lon="4.66829">
        <ele>272.67</ele>
        <time>2020-06-27T08:08:31Z</time>
      </trkpt>
      <trkpt lat="44.83099" lon="4.66826">
        <ele>271.71</ele>
        <time>2020-06-27T08:08:40Z</time>
      </trkpt>
      <trkpt lat="44.83111" lon="4.66842">
        <ele>279.4</ele>
        <time>2020-06-27T08:08:57Z</time>
      </trkpt>
      <trkpt lat="44.83127" lon="4.66856">
        <ele>286.13</ele>
        <time>2020-06-27T08:09:11Z</time>
      </trkpt>
      <trkpt lat="44.83149" lon="4.66866">
        <ele>291.9</ele>
        <time>2020-06-27T08:09:29Z</time>
      </trkpt>
      <trkpt lat="44.83156" lon="4.66884">
        <ele>297.67</ele>
        <time>2020-06-27T08:09:44Z</time>
      </trkpt>
      <trkpt lat="44.83156" lon="4.66887">
        <ele>298.63</ele>
        <time>2020-06-27T08:09:46Z</time>
      </trkpt>
      <trkpt lat="44.83143" lon="4.66907">
        <ele>308.72</ele>
        <time>2020-06-27T08:10:03Z</time>
      </trkpt>
      <trkpt lat="44.83141" lon="4.66909">
        <ele>309.68</ele>
        <time>2020-06-27T08:10:04Z</time>
      </trkpt>
      <trkpt lat="44.83145" lon="4.66948">
        <ele>307.76</ele>
        <time>2020-06-27T08:10:23Z</time>
      </trkpt>
      <trkpt lat="44.83165" lon="4.66981">
        <ele>300.55</ele>
        <time>2020-06-27T08:10:41Z</time>
      </trkpt>
      <trkpt lat="44.83187" lon="4.67002">
        <ele>290.94</ele>
        <time>2020-06-27T08:10:57Z</time>
      </trkpt>
      <trkpt lat="44.83199" lon="4.67022">
        <ele>288.53</ele>
        <time>2020-06-27T08:11:10Z</time>
      </trkpt>
      <trkpt lat="44.83206" lon="4.6703">
        <ele>288.53</ele>
        <time>2020-06-27T08:11:16Z</time>
      </trkpt>
      <trkpt lat="44.83217" lon="4.67042">
        <ele>288.53</ele>
        <time>2020-06-27T08:11:26Z</time>
      </trkpt>
      <trkpt lat="44.83238" lon="4.67061">
        <ele>295.26</ele>
        <time>2020-06-27T08:11:46Z</time>
      </trkpt>
      <trkpt lat="44.83255" lon="4.67078">
        <ele>300.55</ele>
        <time>2020-06-27T08:12:03Z</time>
      </trkpt>
      <trkpt lat="44.83269" lon="4.67084">
        <ele>304.39</ele>
        <time>2020-06-27T08:12:18Z</time>
      </trkpt>
      <trkpt lat="44.83285" lon="4.67092">
        <ele>306.8</ele>
        <time>2020-06-27T08:12:35Z</time>
      </trkpt>
      <trkpt lat="44.83301" lon="4.67101">
        <ele>309.68</ele>
        <time>2020-06-27T08:12:51Z</time>
      </trkpt>
      <trkpt lat="44.83323" lon="4.67119">
        <ele>309.2</ele>
        <time>2020-06-27T08:13:10Z</time>
      </trkpt>
      <trkpt lat="44.83341" lon="4.67122">
        <ele>311.12</ele>
        <time>2020-06-27T08:13:27Z</time>
      </trkpt>
      <trkpt lat="44.83356" lon="4.67124">
        <ele>315.93</ele>
        <time>2020-06-27T08:13:46Z</time>
      </trkpt>
      <trkpt lat="44.83371" lon="4.6712">
        <ele>318.81</ele>
        <time>2020-06-27T08:14:01Z</time>
      </trkpt>
      <trkpt lat="44.83384" lon="4.67111">
        <ele>326.02</ele>
        <time>2020-06-27T08:14:17Z</time>
      </trkpt>
      <trkpt lat="44.83398" lon="4.6711">
        <ele>335.16</ele>
        <time>2020-06-27T08:14:33Z</time>
      </trkpt>
      <trkpt lat="44.83414" lon="4.67108">
        <ele>339.48</ele>
        <time>2020-06-27T08:14:50Z</time>
      </trkpt>
      <trkpt lat="44.83434" lon="4.67114">
        <ele>341.89</ele>
        <time>2020-06-27T08:15:08Z</time>
      </trkpt>
      <trkpt lat="44.83449" lon="4.67115">
        <ele>342.85</ele>
        <time>2020-06-27T08:15:22Z</time>
      </trkpt>
      <trkpt lat="44.83461" lon="4.67108">
        <ele>346.21</ele>
        <time>2020-06-27T08:15:37Z</time>
      </trkpt>
      <trkpt lat="44.83476" lon="4.67105">
        <ele>350.54</ele>
        <time>2020-06-27T08:15:53Z</time>
      </trkpt>
      <trkpt lat="44.83492" lon="4.67098">
        <ele>352.94</ele>
        <time>2020-06-27T08:16:08Z</time>
      </trkpt>
      <trkpt lat="44.83505" lon="4.67098">
        <ele>359.19</ele>
        <time>2020-06-27T08:16:24Z</time>
      </trkpt>
      <trkpt lat="44.83519" lon="4.67094">
        <ele>358.23</ele>
        <time>2020-06-27T08:16:40Z</time>
      </trkpt>
      <trkpt lat="44.83535" lon="4.67092">
        <ele>359.19</ele>
        <time>2020-06-27T08:16:55Z</time>
      </trkpt>
      <trkpt lat="44.83553" lon="4.67092">
        <ele>362.55</ele>
        <time>2020-06-27T08:17:13Z</time>
      </trkpt>
      <trkpt lat="44.83573" lon="4.67094">
        <ele>364.96</ele>
        <time>2020-06-27T08:17:29Z</time>
      </trkpt>
      <trkpt lat="44.83585" lon="4.67095">
        <ele>369.28</ele>
        <time>2020-06-27T08:17:45Z</time>
      </trkpt>
      <trkpt lat="44.83602" lon="4.67096">
        <ele>372.65</ele>
        <time>2020-06-27T08:18:01Z</time>
      </trkpt>
      <trkpt lat="44.83614" lon="4.67096">
        <ele>375.05</ele>
        <time>2020-06-27T08:18:14Z</time>
      </trkpt>
      <trkpt lat="44.83634" lon="4.671">
        <ele>376.97</ele>
        <time>2020-06-27T08:18:32Z</time>
      </trkpt>
      <trkpt lat="44.83661" lon="4.67102">
        <ele>377.94</ele>
        <time>2020-06-27T08:18:53Z</time>
      </trkpt>
      <trkpt lat="44.8368" lon="4.67105">
        <ele>381.3</ele>
        <time>2020-06-27T08:19:09Z</time>
      </trkpt>
      <trkpt lat="44.83699" lon="4.67108">
        <ele>388.03</ele>
        <time>2020-06-27T08:19:27Z</time>
      </trkpt>
      <trkpt lat="44.83714" lon="4.67101">
        <ele>392.36</ele>
        <time>2020-06-27T08:19:45Z</time>
      </trkpt>
      <trkpt lat="44.83705" lon="4.67089">
        <ele>392.36</ele>
        <time>2020-06-27T08:20:00Z</time>
      </trkpt>
      <trkpt lat="44.83694" lon="4.67074">
        <ele>391.39</ele>
        <time>2020-06-27T08:20:16Z</time>
      </trkpt>
      <trkpt lat="44.83685" lon="4.67057">
        <ele>393.32</ele>
        <time>2020-06-27T08:20:34Z</time>
      </trkpt>
      <trkpt lat="44.83675" lon="4.67042">
        <ele>396.2</ele>
        <time>2020-06-27T08:20:52Z</time>
      </trkpt>
      <trkpt lat="44.83682" lon="4.67041">
        <ele>400.05</ele>
        <time>2020-06-27T08:21:07Z</time>
      </trkpt>
      <trkpt lat="44.83693" lon="4.67048">
        <ele>403.89</ele>
        <time>2020-06-27T08:21:19Z</time>
      </trkpt>
      <trkpt lat="44.83696" lon="4.67048">
        <ele>404.85</ele>
        <time>2020-06-27T08:21:35Z</time>
      </trkpt>
      <trkpt lat="44.83704" lon="4.6705">
        <ele>399.08</ele>
        <time>2020-06-27T08:21:53Z</time>
      </trkpt>
      <trkpt lat="44.83706" lon="4.67048">
        <ele>396.68</ele>
        <time>2020-06-27T08:22:11Z</time>
      </trkpt>
      <trkpt lat="44.83714" lon="4.67042">
        <ele>398.12</ele>
        <time>2020-06-27T08:22:27Z</time>
      </trkpt>
      <trkpt lat="44.83717" lon="4.67043">
        <ele>399.08</ele>
        <time>2020-06-27T08:22:30Z</time>
      </trkpt>
      <trkpt lat="44.83741" lon="4.6705">
        <ele>400.05</ele>
        <time>2020-06-27T08:22:49Z</time>
      </trkpt>
      <trkpt lat="44.83759" lon="4.67053">
        <ele>399.08</ele>
        <time>2020-06-27T08:23:07Z</time>
      </trkpt>
      <trkpt lat="44.83783" lon="4.67054">
        <ele>399.08</ele>
        <time>2020-06-27T08:23:25Z</time>
      </trkpt>
      <trkpt lat="44.83807" lon="4.67048">
        <ele>401.49</ele>
        <time>2020-06-27T08:23:43Z</time>
      </trkpt>
      <trkpt lat="44.83819" lon="4.67041">
        <ele>402.45</ele>
        <time>2020-06-27T08:23:55Z</time>
      </trkpt>
      <trkpt lat="44.83831" lon="4.67042">
        <ele>403.41</ele>
        <time>2020-06-27T08:24:09Z</time>
      </trkpt>
      <trkpt lat="44.83842" lon="4.67044">
        <ele>403.89</ele>
        <time>2020-06-27T08:24:21Z</time>
      </trkpt>
      <trkpt lat="44.83844" lon="4.67044">
        <ele>404.85</ele>
        <time>2020-06-27T08:24:34Z</time>
      </trkpt>
      <trkpt lat="44.83844" lon="4.67044">
        <ele>404.85</ele>
        <time>2020-06-27T08:24:42Z</time>
      </trkpt>
      <trkpt lat="44.83853" lon="4.67041">
        <ele>406.29</ele>
        <time>2020-06-27T08:24:57Z</time>
      </trkpt>
      <trkpt lat="44.83858" lon="4.67043">
        <ele>411.1</ele>
        <time>2020-06-27T08:25:12Z</time>
      </trkpt>
      <trkpt lat="44.83865" lon="4.67043">
        <ele>413.5</ele>
        <time>2020-06-27T08:25:30Z</time>
      </trkpt>
      <trkpt lat="44.83871" lon="4.67041">
        <ele>414.95</ele>
        <time>2020-06-27T08:25:38Z</time>
      </trkpt>
      <trkpt lat="44.83881" lon="4.67041">
        <ele>416.87</ele>
        <time>2020-06-27T08:25:48Z</time>
      </trkpt>
      <trkpt lat="44.83895" lon="4.67034">
        <ele>419.75</ele>
        <time>2020-06-27T08:26:03Z</time>
      </trkpt>
      <trkpt lat="44.83909" lon="4.67029">
        <ele>423.12</ele>
        <time>2020-06-27T08:26:18Z</time>
      </trkpt>
      <trkpt lat="44.83924" lon="4.67034">
        <ele>427.92</ele>
        <time>2020-06-27T08:26:33Z</time>
      </trkpt>
      <trkpt lat="44.83933" lon="4.67034">
        <ele>429.37</ele>
        <time>2020-06-27T08:26:41Z</time>
      </trkpt>
      <trkpt lat="44.83948" lon="4.67034">
        <ele>433.69</ele>
        <time>2020-06-27T08:26:57Z</time>
      </trkpt>
      <trkpt lat="44.83961" lon="4.67036">
        <ele>438.98</ele>
        <time>2020-06-27T08:27:13Z</time>
      </trkpt>
      <trkpt lat="44.83975" lon="4.67039">
        <ele>444.75</ele>
        <time>2020-06-27T08:27:29Z</time>
      </trkpt>
      <trkpt lat="44.83987" lon="4.67047">
        <ele>447.15</ele>
        <time>2020-06-27T08:27:44Z</time>
      </trkpt>
      <trkpt lat="44.84" lon="4.67057">
        <ele>446.67</ele>
        <time>2020-06-27T08:27:59Z</time>
      </trkpt>
      <trkpt lat="44.84004" lon="4.67068">
        <ele>446.67</ele>
        <time>2020-06-27T08:28:08Z</time>
      </trkpt>
      <trkpt lat="44.84015" lon="4.67087">
        <ele>444.75</ele>
        <time>2020-06-27T08:28:24Z</time>
      </trkpt>
      <trkpt lat="44.84028" lon="4.67105">
        <ele>446.19</ele>
        <time>2020-06-27T08:28:42Z</time>
      </trkpt>
      <trkpt lat="44.8404" lon="4.67119">
        <ele>451.48</ele>
        <time>2020-06-27T08:29:00Z</time>
      </trkpt>
      <trkpt lat="44.84053" lon="4.6713">
        <ele>454.84</ele>
        <time>2020-06-27T08:29:16Z</time>
      </trkpt>
      <trkpt lat="44.84064" lon="4.67145">
        <ele>458.69</ele>
        <time>2020-06-27T08:29:30Z</time>
      </trkpt>
      <trkpt lat="44.84066" lon="4.67146">
        <ele>459.65</ele>
        <time>2020-06-27T08:29:44Z</time>
      </trkpt>
      <trkpt lat="44.84077" lon="4.67156">
        <ele>458.69</ele>
        <time>2020-06-27T08:29:59Z</time>
      </trkpt>
      <trkpt lat="44.84093" lon="4.67165">
        <ele>461.09</ele>
        <time>2020-06-27T08:30:17Z</time>
      </trkpt>
      <trkpt lat="44.84098" lon="4.67168">
        <ele>461.57</ele>
        <time>2020-06-27T08:30:22Z</time>
      </trkpt>
      <trkpt lat="44.84107" lon="4.67171">
        <ele>463.49</ele>
        <time>2020-06-27T08:30:37Z</time>
      </trkpt>
      <trkpt lat="44.84108" lon="4.67171">
        <ele>465.9</ele>
        <time>2020-06-27T08:30:53Z</time>
      </trkpt>
      <trkpt lat="44.84111" lon="4.67173">
        <ele>465.42</ele>
        <time>2020-06-27T08:31:02Z</time>
      </trkpt>
      <trkpt lat="44.84131" lon="4.67179">
        <ele>466.38</ele>
        <time>2020-06-27T08:31:22Z</time>
      </trkpt>
      <trkpt lat="44.84136" lon="4.67181">
        <ele>467.34</ele>
        <time>2020-06-27T08:31:28Z</time>
      </trkpt>
      <trkpt lat="44.84151" lon="4.67187">
        <ele>470.22</ele>
        <time>2020-06-27T08:31:44Z</time>
      </trkpt>
      <trkpt lat="44.84164" lon="4.67192">
        <ele>473.11</ele>
        <time>2020-06-27T08:32:00Z</time>
      </trkpt>
      <trkpt lat="44.84176" lon="4.67198">
        <ele>475.51</ele>
        <time>2020-06-27T08:32:15Z</time>
      </trkpt>
      <trkpt lat="44.84187" lon="4.67202">
        <ele>477.43</ele>
        <time>2020-06-27T08:32:28Z</time>
      </trkpt>
      <trkpt lat="44.842" lon="4.67205">
        <ele>478.87</ele>
        <time>2020-06-27T08:32:42Z</time>
      </trkpt>
      <trkpt lat="44.84218" lon="4.67213">
        <ele>482.24</ele>
        <time>2020-06-27T08:33:02Z</time>
      </trkpt>
      <trkpt lat="44.84227" lon="4.67216">
        <ele>484.16</ele>
        <time>2020-06-27T08:33:13Z</time>
      </trkpt>
      <trkpt lat="44.84239" lon="4.67216">
        <ele>486.56</ele>
        <time>2020-06-27T08:33:25Z</time>
      </trkpt>
      <trkpt lat="44.84258" lon="4.67211">
        <ele>488.97</ele>
        <time>2020-06-27T08:33:44Z</time>
      </trkpt>
      <trkpt lat="44.84267" lon="4.67205">
        <ele>491.85</ele>
        <time>2020-06-27T08:33:59Z</time>
      </trkpt>
      <trkpt lat="44.8427" lon="4.67203">
        <ele>491.37</ele>
        <time>2020-06-27T08:34:17Z</time>
      </trkpt>
      <trkpt lat="44.84275" lon="4.67196">
        <ele>491.37</ele>
        <time>2020-06-27T08:34:25Z</time>
      </trkpt>
      <trkpt lat="44.84278" lon="4.67191">
        <ele>491.85</ele>
        <time>2020-06-27T08:34:29Z</time>
      </trkpt>
      <trkpt lat="44.84286" lon="4.6718">
        <ele>492.81</ele>
        <time>2020-06-27T08:34:39Z</time>
      </trkpt>
      <trkpt lat="44.8429" lon="4.67171">
        <ele>495.7</ele>
        <time>2020-06-27T08:34:55Z</time>
      </trkpt>
      <trkpt lat="44.84292" lon="4.6717">
        <ele>498.1</ele>
        <time>2020-06-27T08:35:24Z</time>
      </trkpt>
      <trkpt lat="44.84282" lon="4.67171">
        <ele>500.5</ele>
        <time>2020-06-27T08:35:41Z</time>
      </trkpt>
      <trkpt lat="44.84272" lon="4.67177">
        <ele>500.98</ele>
        <time>2020-06-27T08:35:50Z</time>
      </trkpt>
      <trkpt lat="44.84255" lon="4.67171">
        <ele>503.87</ele>
        <time>2020-06-27T08:36:08Z</time>
      </trkpt>
      <trkpt lat="44.84237" lon="4.67156">
        <ele>504.35</ele>
        <time>2020-06-27T08:36:25Z</time>
      </trkpt>
      <trkpt lat="44.84221" lon="4.67137">
        <ele>505.79</ele>
        <time>2020-06-27T08:36:42Z</time>
      </trkpt>
      <trkpt lat="44.84212" lon="4.67118">
        <ele>506.75</ele>
        <time>2020-06-27T08:36:58Z</time>
      </trkpt>
      <trkpt lat="44.84213" lon="4.67117">
        <ele>507.23</ele>
        <time>2020-06-27T08:37:01Z</time>
      </trkpt>
      <trkpt lat="44.84227" lon="4.67119">
        <ele>509.64</ele>
        <time>2020-06-27T08:37:17Z</time>
      </trkpt>
      <trkpt lat="44.84237" lon="4.67114">
        <ele>512.52</ele>
        <time>2020-06-27T08:37:33Z</time>
      </trkpt>
      <trkpt lat="44.84245" lon="4.67113">
        <ele>514.44</ele>
        <time>2020-06-27T08:37:43Z</time>
      </trkpt>
      <trkpt lat="44.84258" lon="4.67114">
        <ele>517.33</ele>
        <time>2020-06-27T08:37:56Z</time>
      </trkpt>
      <trkpt lat="44.84265" lon="4.67112">
        <ele>518.29</ele>
        <time>2020-06-27T08:38:04Z</time>
      </trkpt>
      <trkpt lat="44.8427" lon="4.67105">
        <ele>519.25</ele>
        <time>2020-06-27T08:38:11Z</time>
      </trkpt>
      <trkpt lat="44.84292" lon="4.67098">
        <ele>521.65</ele>
        <time>2020-06-27T08:38:30Z</time>
      </trkpt>
      <trkpt lat="44.84306" lon="4.67088">
        <ele>521.65</ele>
        <time>2020-06-27T08:38:45Z</time>
      </trkpt>
      <trkpt lat="44.84314" lon="4.6707">
        <ele>523.58</ele>
        <time>2020-06-27T08:39:03Z</time>
      </trkpt>
      <trkpt lat="44.84325" lon="4.67062">
        <ele>525.98</ele>
        <time>2020-06-27T08:39:18Z</time>
      </trkpt>
      <trkpt lat="44.84333" lon="4.67047">
        <ele>529.34</ele>
        <time>2020-06-27T08:39:34Z</time>
      </trkpt>
      <trkpt lat="44.84345" lon="4.67032">
        <ele>532.23</ele>
        <time>2020-06-27T08:39:52Z</time>
      </trkpt>
      <trkpt lat="44.84347" lon="4.67029">
        <ele>534.15</ele>
        <time>2020-06-27T08:40:09Z</time>
      </trkpt>
      <trkpt lat="44.84354" lon="4.67024">
        <ele>535.11</ele>
        <time>2020-06-27T08:40:27Z</time>
      </trkpt>
      <trkpt lat="44.84369" lon="4.67013">
        <ele>536.55</ele>
        <time>2020-06-27T08:40:44Z</time>
      </trkpt>
      <trkpt lat="44.84381" lon="4.66998">
        <ele>539.44</ele>
        <time>2020-06-27T08:41:01Z</time>
      </trkpt>
      <trkpt lat="44.84392" lon="4.66984">
        <ele>543.76</ele>
        <time>2020-06-27T08:41:16Z</time>
      </trkpt>
      <trkpt lat="44.84401" lon="4.66963">
        <ele>547.61</ele>
        <time>2020-06-27T08:41:35Z</time>
      </trkpt>
      <trkpt lat="44.8441" lon="4.66949">
        <ele>550.49</ele>
        <time>2020-06-27T08:41:51Z</time>
      </trkpt>
      <trkpt lat="44.84417" lon="4.66933">
        <ele>553.86</ele>
        <time>2020-06-27T08:42:07Z</time>
      </trkpt>
      <trkpt lat="44.84423" lon="4.6691">
        <ele>558.18</ele>
        <time>2020-06-27T08:42:24Z</time>
      </trkpt>
      <trkpt lat="44.84424" lon="4.66889">
        <ele>560.59</ele>
        <time>2020-06-27T08:42:39Z</time>
      </trkpt>
      <trkpt lat="44.8443" lon="4.66869">
        <ele>562.51</ele>
        <time>2020-06-27T08:42:55Z</time>
      </trkpt>
      <trkpt lat="44.84435" lon="4.66847">
        <ele>565.87</ele>
        <time>2020-06-27T08:43:13Z</time>
      </trkpt>
      <trkpt lat="44.84441" lon="4.66824">
        <ele>566.35</ele>
        <time>2020-06-27T08:43:29Z</time>
      </trkpt>
      <trkpt lat="44.84449" lon="4.66812">
        <ele>567.8</ele>
        <time>2020-06-27T08:43:44Z</time>
      </trkpt>
      <trkpt lat="44.8446" lon="4.66806">
        <ele>569.72</ele>
        <time>2020-06-27T08:43:55Z</time>
      </trkpt>
      <trkpt lat="44.84473" lon="4.66795">
        <ele>572.12</ele>
        <time>2020-06-27T08:44:11Z</time>
      </trkpt>
      <trkpt lat="44.84478" lon="4.66792">
        <ele>571.64</ele>
        <time>2020-06-27T08:44:27Z</time>
      </trkpt>
      <trkpt lat="44.8448" lon="4.66791">
        <ele>570.2</ele>
        <time>2020-06-27T08:44:50Z</time>
      </trkpt>
      <trkpt lat="44.84483" lon="4.66792">
        <ele>566.83</ele>
        <time>2020-06-27T08:45:19Z</time>
      </trkpt>
      <trkpt lat="44.84484" lon="4.66792">
        <ele>566.83</ele>
        <time>2020-06-27T08:45:40Z</time>
      </trkpt>
      <trkpt lat="44.84486" lon="4.66793">
        <ele>566.83</ele>
        <time>2020-06-27T08:46:12Z</time>
      </trkpt>
      <trkpt lat="44.84485" lon="4.6679">
        <ele>565.39</ele>
        <time>2020-06-27T08:46:35Z</time>
      </trkpt>
      <trkpt lat="44.84483" lon="4.6679">
        <ele>561.55</ele>
        <time>2020-06-27T08:46:57Z</time>
      </trkpt>
      <trkpt lat="44.84492" lon="4.66786">
        <ele>561.07</ele>
        <time>2020-06-27T08:47:09Z</time>
      </trkpt>
      <trkpt lat="44.84502" lon="4.66779">
        <ele>562.99</ele>
        <time>2020-06-27T08:47:25Z</time>
      </trkpt>
      <trkpt lat="44.84519" lon="4.66766">
        <ele>564.91</ele>
        <time>2020-06-27T08:47:42Z</time>
      </trkpt>
      <trkpt lat="44.8454" lon="4.66742">
        <ele>565.87</ele>
        <time>2020-06-27T08:48:02Z</time>
      </trkpt>
      <trkpt lat="44.8456" lon="4.66726">
        <ele>566.35</ele>
        <time>2020-06-27T08:48:18Z</time>
      </trkpt>
      <trkpt lat="44.84565" lon="4.66719">
        <ele>565.87</ele>
        <time>2020-06-27T08:48:23Z</time>
      </trkpt>
      <trkpt lat="44.84587" lon="4.66705">
        <ele>567.32</ele>
        <time>2020-06-27T08:48:42Z</time>
      </trkpt>
      <trkpt lat="44.84609" lon="4.66688">
        <ele>567.8</ele>
        <time>2020-06-27T08:49:00Z</time>
      </trkpt>
      <trkpt lat="44.84629" lon="4.66667">
        <ele>569.72</ele>
        <time>2020-06-27T08:49:20Z</time>
      </trkpt>
      <trkpt lat="44.84651" lon="4.6665">
        <ele>573.56</ele>
        <time>2020-06-27T08:49:39Z</time>
      </trkpt>
      <trkpt lat="44.84661" lon="4.66645">
        <ele>575.97</ele>
        <time>2020-06-27T08:49:52Z</time>
      </trkpt>
      <trkpt lat="44.8468" lon="4.66633">
        <ele>579.81</ele>
        <time>2020-06-27T08:50:09Z</time>
      </trkpt>
      <trkpt lat="44.84699" lon="4.66622">
        <ele>584.14</ele>
        <time>2020-06-27T08:50:26Z</time>
      </trkpt>
      <trkpt lat="44.84725" lon="4.66609">
        <ele>583.66</ele>
        <time>2020-06-27T08:50:45Z</time>
      </trkpt>
      <trkpt lat="44.84743" lon="4.66594">
        <ele>583.66</ele>
        <time>2020-06-27T08:51:03Z</time>
      </trkpt>
      <trkpt lat="44.84769" lon="4.66591">
        <ele>583.66</ele>
        <time>2020-06-27T08:51:22Z</time>
      </trkpt>
      <trkpt lat="44.84779" lon="4.66595">
        <ele>583.66</ele>
        <time>2020-06-27T08:51:29Z</time>
      </trkpt>
      <trkpt lat="44.84784" lon="4.66585">
        <ele>580.77</ele>
        <time>2020-06-27T08:51:37Z</time>
      </trkpt>
      <trkpt lat="44.84774" lon="4.6654">
        <ele>581.25</ele>
        <time>2020-06-27T08:52:00Z</time>
      </trkpt>
      <trkpt lat="44.84766" lon="4.66497">
        <ele>584.62</ele>
        <time>2020-06-27T08:52:23Z</time>
      </trkpt>
      <trkpt lat="44.84745" lon="4.66479">
        <ele>585.1</ele>
        <time>2020-06-27T08:52:42Z</time>
      </trkpt>
      <trkpt lat="44.84721" lon="4.66459">
        <ele>586.54</ele>
        <time>2020-06-27T08:53:02Z</time>
      </trkpt>
      <trkpt lat="44.84698" lon="4.66442">
        <ele>583.66</ele>
        <time>2020-06-27T08:53:21Z</time>
      </trkpt>
      <trkpt lat="44.84673" lon="4.66414">
        <ele>581.73</ele>
        <time>2020-06-27T08:53:44Z</time>
      </trkpt>
      <trkpt lat="44.84646" lon="4.664">
        <ele>581.73</ele>
        <time>2020-06-27T08:54:05Z</time>
      </trkpt>
      <trkpt lat="44.84621" lon="4.66383">
        <ele>584.62</ele>
        <time>2020-06-27T08:54:25Z</time>
      </trkpt>
      <trkpt lat="44.84592" lon="4.66373">
        <ele>582.22</ele>
        <time>2020-06-27T08:54:45Z</time>
      </trkpt>
      <trkpt lat="44.84573" lon="4.66345">
        <ele>580.77</ele>
        <time>2020-06-27T08:55:04Z</time>
      </trkpt>
      <trkpt lat="44.8455" lon="4.66332">
        <ele>575.97</ele>
        <time>2020-06-27T08:55:21Z</time>
      </trkpt>
      <trkpt lat="44.84524" lon="4.66329">
        <ele>575.97</ele>
        <time>2020-06-27T08:55:41Z</time>
      </trkpt>
      <trkpt lat="44.84501" lon="4.66301">
        <ele>578.37</ele>
        <time>2020-06-27T08:56:01Z</time>
      </trkpt>
      <trkpt lat="44.84485" lon="4.66263">
        <ele>575.97</ele>
        <time>2020-06-27T08:56:22Z</time>
      </trkpt>
      <trkpt lat="44.84474" lon="4.66218">
        <ele>570.68</ele>
        <time>2020-06-27T08:56:44Z</time>
      </trkpt>
      <trkpt lat="44.84446" lon="4.66198">
        <ele>570.68</ele>
        <time>2020-06-27T08:57:04Z</time>
      </trkpt>
      <trkpt lat="44.84424" lon="4.66174">
        <ele>572.6</ele>
        <time>2020-06-27T08:57:23Z</time>
      </trkpt>
      <trkpt lat="44.84401" lon="4.66156">
        <ele>571.64</ele>
        <time>2020-06-27T08:57:43Z</time>
      </trkpt>
      <trkpt lat="44.84392" lon="4.66151">
        <ele>572.12</ele>
        <time>2020-06-27T08:57:55Z</time>
      </trkpt>
      <trkpt lat="44.84367" lon="4.66147">
        <ele>573.56</ele>
        <time>2020-06-27T08:58:13Z</time>
      </trkpt>
      <trkpt lat="44.84333" lon="4.66138">
        <ele>575.49</ele>
        <time>2020-06-27T08:58:36Z</time>
      </trkpt>
      <trkpt lat="44.84307" lon="4.66123">
        <ele>574.04</ele>
        <time>2020-06-27T08:58:55Z</time>
      </trkpt>
      <trkpt lat="44.84284" lon="4.66099">
        <ele>573.56</ele>
        <time>2020-06-27T08:59:15Z</time>
      </trkpt>
      <trkpt lat="44.84269" lon="4.66068">
        <ele>575.49</ele>
        <time>2020-06-27T08:59:33Z</time>
      </trkpt>
      <trkpt lat="44.84253" lon="4.66038">
        <ele>575.49</ele>
        <time>2020-06-27T08:59:51Z</time>
      </trkpt>
      <trkpt lat="44.84241" lon="4.66004">
        <ele>573.08</ele>
        <time>2020-06-27T09:00:08Z</time>
      </trkpt>
      <trkpt lat="44.84226" lon="4.65963">
        <ele>573.08</ele>
        <time>2020-06-27T09:00:30Z</time>
      </trkpt>
      <trkpt lat="44.8421" lon="4.65925">
        <ele>572.6</ele>
        <time>2020-06-27T09:00:50Z</time>
      </trkpt>
      <trkpt lat="44.84188" lon="4.65904">
        <ele>570.68</ele>
        <time>2020-06-27T09:01:09Z</time>
      </trkpt>
      <trkpt lat="44.8416" lon="4.65905">
        <ele>571.16</ele>
        <time>2020-06-27T09:01:28Z</time>
      </trkpt>
      <trkpt lat="44.84129" lon="4.65905">
        <ele>572.12</ele>
        <time>2020-06-27T09:01:48Z</time>
      </trkpt>
      <trkpt lat="44.84095" lon="4.65912">
        <ele>573.56</ele>
        <time>2020-06-27T09:02:08Z</time>
      </trkpt>
      <trkpt lat="44.84059" lon="4.65907">
        <ele>567.8</ele>
        <time>2020-06-27T09:02:30Z</time>
      </trkpt>
      <trkpt lat="44.84029" lon="4.65899">
        <ele>559.14</ele>
        <time>2020-06-27T09:02:50Z</time>
      </trkpt>
      <trkpt lat="44.84" lon="4.65876">
        <ele>554.34</ele>
        <time>2020-06-27T09:03:11Z</time>
      </trkpt>
      <trkpt lat="44.83983" lon="4.65841">
        <ele>554.82</ele>
        <time>2020-06-27T09:03:32Z</time>
      </trkpt>
      <trkpt lat="44.83964" lon="4.65808">
        <ele>554.34</ele>
        <time>2020-06-27T09:03:51Z</time>
      </trkpt>
      <trkpt lat="44.83943" lon="4.65788">
        <ele>554.82</ele>
        <time>2020-06-27T09:04:09Z</time>
      </trkpt>
      <trkpt lat="44.83916" lon="4.65766">
        <ele>558.66</ele>
        <time>2020-06-27T09:04:31Z</time>
      </trkpt>
      <trkpt lat="44.83905" lon="4.65762">
        <ele>560.11</ele>
        <time>2020-06-27T09:04:46Z</time>
      </trkpt>
      <trkpt lat="44.83905" lon="4.65761">
        <ele>560.59</ele>
        <time>2020-06-27T09:04:52Z</time>
      </trkpt>
      <trkpt lat="44.8388" lon="4.65742">
        <ele>562.51</ele>
        <time>2020-06-27T09:05:13Z</time>
      </trkpt>
      <trkpt lat="44.8386" lon="4.65718">
        <ele>562.03</ele>
        <time>2020-06-27T09:05:32Z</time>
      </trkpt>
      <trkpt lat="44.83842" lon="4.65697">
        <ele>563.47</ele>
        <time>2020-06-27T09:05:49Z</time>
      </trkpt>
      <trkpt lat="44.83831" lon="4.65672">
        <ele>559.62</ele>
        <time>2020-06-27T09:06:06Z</time>
      </trkpt>
      <trkpt lat="44.8383" lon="4.65668">
        <ele>559.62</ele>
        <time>2020-06-27T09:06:08Z</time>
      </trkpt>
      <trkpt lat="44.83826" lon="4.65637">
        <ele>558.66</ele>
        <time>2020-06-27T09:06:25Z</time>
      </trkpt>
      <trkpt lat="44.83826" lon="4.65633">
        <ele>558.66</ele>
        <time>2020-06-27T09:06:27Z</time>
      </trkpt>
      <trkpt lat="44.83817" lon="4.65632">
        <ele>557.7</ele>
        <time>2020-06-27T09:06:40Z</time>
      </trkpt>
      <trkpt lat="44.83805" lon="4.65665">
        <ele>553.86</ele>
        <time>2020-06-27T09:07:00Z</time>
      </trkpt>
      <trkpt lat="44.83799" lon="4.65698">
        <ele>547.13</ele>
        <time>2020-06-27T09:07:18Z</time>
      </trkpt>
      <trkpt lat="44.83793" lon="4.65724">
        <ele>542.8</ele>
        <time>2020-06-27T09:07:31Z</time>
      </trkpt>
      <trkpt lat="44.83787" lon="4.65737">
        <ele>539.92</ele>
        <time>2020-06-27T09:07:39Z</time>
      </trkpt>
      <trkpt lat="44.83777" lon="4.65766">
        <ele>535.11</ele>
        <time>2020-06-27T09:07:56Z</time>
      </trkpt>
      <trkpt lat="44.83762" lon="4.65788">
        <ele>531.75</ele>
        <time>2020-06-27T09:08:13Z</time>
      </trkpt>
      <trkpt lat="44.8376" lon="4.6579">
        <ele>531.75</ele>
        <time>2020-06-27T09:08:15Z</time>
      </trkpt>
      <trkpt lat="44.83733" lon="4.65814">
        <ele>529.34</ele>
        <time>2020-06-27T09:08:36Z</time>
      </trkpt>
      <trkpt lat="44.83712" lon="4.65827">
        <ele>526.46</ele>
        <time>2020-06-27T09:08:54Z</time>
      </trkpt>
      <trkpt lat="44.83704" lon="4.65832">
        <ele>525.5</ele>
        <time>2020-06-27T09:09:08Z</time>
      </trkpt>
      <trkpt lat="44.83704" lon="4.65832">
        <ele>525.02</ele>
        <time>2020-06-27T09:09:09Z</time>
      </trkpt>
      <trkpt lat="44.83711" lon="4.65822">
        <ele>526.46</ele>
        <time>2020-06-27T09:09:25Z</time>
      </trkpt>
      <trkpt lat="44.83709" lon="4.6582">
        <ele>525.98</ele>
        <time>2020-06-27T09:09:38Z</time>
      </trkpt>
      <trkpt lat="44.83707" lon="4.65819">
        <ele>525.02</ele>
        <time>2020-06-27T09:09:57Z</time>
      </trkpt>
      <trkpt lat="44.83708" lon="4.65818">
        <ele>525.98</ele>
        <time>2020-06-27T09:10:16Z</time>
      </trkpt>
      <trkpt lat="44.83706" lon="4.6582">
        <ele>524.54</ele>
        <time>2020-06-27T09:10:37Z</time>
      </trkpt>
      <trkpt lat="44.83709" lon="4.65822">
        <ele>524.06</ele>
        <time>2020-06-27T09:10:50Z</time>
      </trkpt>
      <trkpt lat="44.83709" lon="4.65827">
        <ele>523.58</ele>
        <time>2020-06-27T09:11:07Z</time>
      </trkpt>
      <trkpt lat="44.83707" lon="4.65829">
        <ele>522.61</ele>
        <time>2020-06-27T09:11:22Z</time>
      </trkpt>
      <trkpt lat="44.83705" lon="4.65832">
        <ele>522.13</ele>
        <time>2020-06-27T09:11:29Z</time>
      </trkpt>
      <trkpt lat="44.837" lon="4.65837">
        <ele>521.17</ele>
        <time>2020-06-27T09:11:33Z</time>
      </trkpt>
      <trkpt lat="44.83682" lon="4.65842">
        <ele>518.77</ele>
        <time>2020-06-27T09:11:49Z</time>
      </trkpt>
      <trkpt lat="44.8368" lon="4.6584">
        <ele>518.29</ele>
        <time>2020-06-27T09:12:02Z</time>
      </trkpt>
      <trkpt lat="44.83678" lon="4.65838">
        <ele>517.81</ele>
        <time>2020-06-27T09:12:11Z</time>
      </trkpt>
      <trkpt lat="44.83673" lon="4.65824">
        <ele>516.37</ele>
        <time>2020-06-27T09:12:26Z</time>
      </trkpt>
      <trkpt lat="44.83662" lon="4.65809">
        <ele>513.48</ele>
        <time>2020-06-27T09:12:43Z</time>
      </trkpt>
      <trkpt lat="44.83642" lon="4.65815">
        <ele>511.08</ele>
        <time>2020-06-27T09:12:58Z</time>
      </trkpt>
      <trkpt lat="44.83629" lon="4.65817">
        <ele>509.16</ele>
        <time>2020-06-27T09:13:11Z</time>
      </trkpt>
      <trkpt lat="44.83614" lon="4.65828">
        <ele>506.27</ele>
        <time>2020-06-27T09:13:26Z</time>
      </trkpt>
      <trkpt lat="44.83607" lon="4.65831">
        <ele>500.98</ele>
        <time>2020-06-27T09:13:50Z</time>
      </trkpt>
      <trkpt lat="44.83606" lon="4.65832">
        <ele>500.98</ele>
        <time>2020-06-27T09:13:51Z</time>
      </trkpt>
      <trkpt lat="44.83593" lon="4.65831">
        <ele>498.1</ele>
        <time>2020-06-27T09:14:07Z</time>
      </trkpt>
      <trkpt lat="44.83585" lon="4.6583">
        <ele>495.22</ele>
        <time>2020-06-27T09:14:22Z</time>
      </trkpt>
      <trkpt lat="44.83567" lon="4.65829">
        <ele>492.33</ele>
        <time>2020-06-27T09:14:38Z</time>
      </trkpt>
      <trkpt lat="44.83545" lon="4.65821">
        <ele>487.05</ele>
        <time>2020-06-27T09:14:54Z</time>
      </trkpt>
      <trkpt lat="44.83528" lon="4.65808">
        <ele>481.76</ele>
        <time>2020-06-27T09:15:11Z</time>
      </trkpt>
      <trkpt lat="44.83518" lon="4.65801">
        <ele>479.35</ele>
        <time>2020-06-27T09:15:19Z</time>
      </trkpt>
      <trkpt lat="44.83514" lon="4.65796">
        <ele>478.39</ele>
        <time>2020-06-27T09:15:23Z</time>
      </trkpt>
      <trkpt lat="44.83495" lon="4.65774">
        <ele>472.63</ele>
        <time>2020-06-27T09:15:40Z</time>
      </trkpt>
      <trkpt lat="44.83483" lon="4.65758">
        <ele>468.3</ele>
        <time>2020-06-27T09:15:53Z</time>
      </trkpt>
      <trkpt lat="44.83482" lon="4.65758">
        <ele>467.82</ele>
        <time>2020-06-27T09:15:54Z</time>
      </trkpt>
      <trkpt lat="44.8347" lon="4.65764">
        <ele>464.93</ele>
        <time>2020-06-27T09:16:02Z</time>
      </trkpt>
      <trkpt lat="44.83465" lon="4.65765">
        <ele>463.97</ele>
        <time>2020-06-27T09:16:05Z</time>
      </trkpt>
      <trkpt lat="44.83461" lon="4.65768">
        <ele>463.01</ele>
        <time>2020-06-27T09:16:08Z</time>
      </trkpt>
      <trkpt lat="44.83447" lon="4.65764">
        <ele>459.17</ele>
        <time>2020-06-27T09:16:19Z</time>
      </trkpt>
      <trkpt lat="44.83445" lon="4.65764">
        <ele>458.21</ele>
        <time>2020-06-27T09:16:21Z</time>
      </trkpt>
      <trkpt lat="44.83434" lon="4.65766">
        <ele>454.84</ele>
        <time>2020-06-27T09:16:31Z</time>
      </trkpt>
      <trkpt lat="44.8343" lon="4.65767">
        <ele>454.36</ele>
        <time>2020-06-27T09:16:34Z</time>
      </trkpt>
      <trkpt lat="44.8342" lon="4.65745">
        <ele>449.07</ele>
        <time>2020-06-27T09:16:50Z</time>
      </trkpt>
      <trkpt lat="44.83419" lon="4.65744">
        <ele>448.59</ele>
        <time>2020-06-27T09:16:51Z</time>
      </trkpt>
      <trkpt lat="44.83404" lon="4.65751">
        <ele>444.75</ele>
        <time>2020-06-27T09:17:06Z</time>
      </trkpt>
      <trkpt lat="44.83385" lon="4.6576">
        <ele>443.79</ele>
        <time>2020-06-27T09:17:20Z</time>
      </trkpt>
      <trkpt lat="44.83373" lon="4.65772">
        <ele>441.86</ele>
        <time>2020-06-27T09:17:29Z</time>
      </trkpt>
      <trkpt lat="44.83357" lon="4.65781">
        <ele>438.98</ele>
        <time>2020-06-27T09:17:43Z</time>
      </trkpt>
      <trkpt lat="44.83345" lon="4.6577">
        <ele>434.17</ele>
        <time>2020-06-27T09:17:54Z</time>
      </trkpt>
      <trkpt lat="44.83344" lon="4.65768">
        <ele>429.85</ele>
        <time>2020-06-27T09:18:11Z</time>
      </trkpt>
      <trkpt lat="44.83344" lon="4.65766">
        <ele>429.85</ele>
        <time>2020-06-27T09:18:12Z</time>
      </trkpt>
      <trkpt lat="44.83342" lon="4.6575">
        <ele>427.44</ele>
        <time>2020-06-27T09:18:25Z</time>
      </trkpt>
      <trkpt lat="44.83325" lon="4.65762">
        <ele>428.4</ele>
        <time>2020-06-27T09:18:41Z</time>
      </trkpt>
      <trkpt lat="44.83308" lon="4.65785">
        <ele>431.29</ele>
        <time>2020-06-27T09:19:03Z</time>
      </trkpt>
      <trkpt lat="44.83283" lon="4.65808">
        <ele>430.81</ele>
        <time>2020-06-27T09:19:22Z</time>
      </trkpt>
      <trkpt lat="44.83265" lon="4.65836">
        <ele>430.81</ele>
        <time>2020-06-27T09:19:38Z</time>
      </trkpt>
      <trkpt lat="44.83249" lon="4.65868">
        <ele>427.92</ele>
        <time>2020-06-27T09:19:58Z</time>
      </trkpt>
      <trkpt lat="44.83226" lon="4.6589">
        <ele>426.96</ele>
        <time>2020-06-27T09:20:16Z</time>
      </trkpt>
      <trkpt lat="44.83198" lon="4.65925">
        <ele>426.48</ele>
        <time>2020-06-27T09:20:39Z</time>
      </trkpt>
      <trkpt lat="44.83182" lon="4.65941">
        <ele>426</ele>
        <time>2020-06-27T09:20:55Z</time>
      </trkpt>
      <trkpt lat="44.83181" lon="4.65952">
        <ele>425.52</ele>
        <time>2020-06-27T09:21:03Z</time>
      </trkpt>
      <trkpt lat="44.83185" lon="4.65955">
        <ele>425.04</ele>
        <time>2020-06-27T09:21:13Z</time>
      </trkpt>
      <trkpt lat="44.83201" lon="4.65948">
        <ele>421.19</ele>
        <time>2020-06-27T09:21:27Z</time>
      </trkpt>
      <trkpt lat="44.83226" lon="4.65935">
        <ele>418.31</ele>
        <time>2020-06-27T09:21:47Z</time>
      </trkpt>
      <trkpt lat="44.83249" lon="4.65926">
        <ele>415.91</ele>
        <time>2020-06-27T09:22:03Z</time>
      </trkpt>
      <trkpt lat="44.83278" lon="4.65901">
        <ele>413.5</ele>
        <time>2020-06-27T09:22:24Z</time>
      </trkpt>
      <trkpt lat="44.83303" lon="4.65872">
        <ele>411.58</ele>
        <time>2020-06-27T09:22:43Z</time>
      </trkpt>
      <trkpt lat="44.83326" lon="4.65872">
        <ele>409.66</ele>
        <time>2020-06-27T09:23:00Z</time>
      </trkpt>
      <trkpt lat="44.83344" lon="4.65898">
        <ele>405.81</ele>
        <time>2020-06-27T09:23:18Z</time>
      </trkpt>
      <trkpt lat="44.83371" lon="4.65924">
        <ele>397.64</ele>
        <time>2020-06-27T09:23:41Z</time>
      </trkpt>
      <trkpt lat="44.83374" lon="4.65928">
        <ele>396.2</ele>
        <time>2020-06-27T09:23:44Z</time>
      </trkpt>
      <trkpt lat="44.83386" lon="4.65962">
        <ele>391.39</ele>
        <time>2020-06-27T09:24:01Z</time>
      </trkpt>
      <trkpt lat="44.83387" lon="4.6597">
        <ele>390.91</ele>
        <time>2020-06-27T09:24:05Z</time>
      </trkpt>
      <trkpt lat="44.8338" lon="4.65979">
        <ele>389.47</ele>
        <time>2020-06-27T09:24:13Z</time>
      </trkpt>
      <trkpt lat="44.83361" lon="4.65961">
        <ele>385.15</ele>
        <time>2020-06-27T09:24:29Z</time>
      </trkpt>
      <trkpt lat="44.83336" lon="4.65943">
        <ele>382.26</ele>
        <time>2020-06-27T09:24:49Z</time>
      </trkpt>
      <trkpt lat="44.83329" lon="4.65943">
        <ele>383.22</ele>
        <time>2020-06-27T09:24:55Z</time>
      </trkpt>
      <trkpt lat="44.83305" lon="4.65966">
        <ele>385.15</ele>
        <time>2020-06-27T09:25:14Z</time>
      </trkpt>
      <trkpt lat="44.83284" lon="4.65988">
        <ele>378.9</ele>
        <time>2020-06-27T09:25:31Z</time>
      </trkpt>
      <trkpt lat="44.83261" lon="4.66019">
        <ele>375.53</ele>
        <time>2020-06-27T09:25:50Z</time>
      </trkpt>
      <trkpt lat="44.83239" lon="4.66052">
        <ele>374.09</ele>
        <time>2020-06-27T09:26:10Z</time>
      </trkpt>
      <trkpt lat="44.83225" lon="4.66091">
        <ele>370.24</ele>
        <time>2020-06-27T09:26:31Z</time>
      </trkpt>
      <trkpt lat="44.83206" lon="4.66122">
        <ele>362.55</ele>
        <time>2020-06-27T09:26:48Z</time>
      </trkpt>
      <trkpt lat="44.83184" lon="4.66144">
        <ele>360.15</ele>
        <time>2020-06-27T09:27:05Z</time>
      </trkpt>
      <trkpt lat="44.8316" lon="4.66149">
        <ele>353.42</ele>
        <time>2020-06-27T09:27:22Z</time>
      </trkpt>
      <trkpt lat="44.83134" lon="4.66148">
        <ele>348.62</ele>
        <time>2020-06-27T09:27:38Z</time>
      </trkpt>
      <trkpt lat="44.83108" lon="4.66158">
        <ele>343.81</ele>
        <time>2020-06-27T09:27:55Z</time>
      </trkpt>
      <trkpt lat="44.83078" lon="4.66168">
        <ele>337.56</ele>
        <time>2020-06-27T09:28:14Z</time>
      </trkpt>
      <trkpt lat="44.83053" lon="4.66183">
        <ele>332.75</ele>
        <time>2020-06-27T09:28:31Z</time>
      </trkpt>
      <trkpt lat="44.83028" lon="4.66192">
        <ele>329.39</ele>
        <time>2020-06-27T09:28:49Z</time>
      </trkpt>
      <trkpt lat="44.83005" lon="4.66214">
        <ele>326.02</ele>
        <time>2020-06-27T09:29:08Z</time>
      </trkpt>
      <trkpt lat="44.82983" lon="4.66241">
        <ele>323.62</ele>
        <time>2020-06-27T09:29:27Z</time>
      </trkpt>
      <trkpt lat="44.82958" lon="4.66244">
        <ele>320.74</ele>
        <time>2020-06-27T09:29:43Z</time>
      </trkpt>
      <trkpt lat="44.82953" lon="4.66216">
        <ele>318.33</ele>
        <time>2020-06-27T09:30:02Z</time>
      </trkpt>
      <trkpt lat="44.82956" lon="4.66204">
        <ele>316.89</ele>
        <time>2020-06-27T09:30:08Z</time>
      </trkpt>
      <trkpt lat="44.82969" lon="4.66171">
        <ele>309.68</ele>
        <time>2020-06-27T09:30:28Z</time>
      </trkpt>
      <trkpt lat="44.82967" lon="4.66124">
        <ele>305.36</ele>
        <time>2020-06-27T09:30:49Z</time>
      </trkpt>
      <trkpt lat="44.82968" lon="4.66103">
        <ele>305.36</ele>
        <time>2020-06-27T09:31:05Z</time>
      </trkpt>
      <trkpt lat="44.82959" lon="4.66111">
        <ele>304.39</ele>
        <time>2020-06-27T09:31:21Z</time>
      </trkpt>
      <trkpt lat="44.82956" lon="4.66116">
        <ele>304.39</ele>
        <time>2020-06-27T09:31:24Z</time>
      </trkpt>
      <trkpt lat="44.82942" lon="4.66147">
        <ele>302.47</ele>
        <time>2020-06-27T09:31:41Z</time>
      </trkpt>
      <trkpt lat="44.82926" lon="4.66162">
        <ele>301.51</ele>
        <time>2020-06-27T09:31:56Z</time>
      </trkpt>
      <trkpt lat="44.82917" lon="4.66171">
        <ele>299.11</ele>
        <time>2020-06-27T09:32:16Z</time>
      </trkpt>
      <trkpt lat="44.82892" lon="4.6618">
        <ele>298.15</ele>
        <time>2020-06-27T09:32:34Z</time>
      </trkpt>
      <trkpt lat="44.82886" lon="4.66179">
        <ele>297.18</ele>
        <time>2020-06-27T09:32:39Z</time>
      </trkpt>
      <trkpt lat="44.82883" lon="4.66176">
        <ele>295.26</ele>
        <time>2020-06-27T09:32:47Z</time>
      </trkpt>
      <trkpt lat="44.82886" lon="4.66173">
        <ele>294.78</ele>
        <time>2020-06-27T09:32:51Z</time>
      </trkpt>
      <trkpt lat="44.82906" lon="4.66161">
        <ele>290.46</ele>
        <time>2020-06-27T09:33:08Z</time>
      </trkpt>
      <trkpt lat="44.82905" lon="4.66152">
        <ele>286.13</ele>
        <time>2020-06-27T09:33:21Z</time>
      </trkpt>
      <trkpt lat="44.82904" lon="4.66153">
        <ele>286.13</ele>
        <time>2020-06-27T09:33:28Z</time>
      </trkpt>
      <trkpt lat="44.82883" lon="4.66154">
        <ele>285.65</ele>
        <time>2020-06-27T09:33:47Z</time>
      </trkpt>
      <trkpt lat="44.82873" lon="4.66154">
        <ele>285.17</ele>
        <time>2020-06-27T09:33:54Z</time>
      </trkpt>
      <trkpt lat="44.82836" lon="4.66166">
        <ele>283.73</ele>
        <time>2020-06-27T09:34:14Z</time>
      </trkpt>
      <trkpt lat="44.82818" lon="4.6618">
        <ele>280.84</ele>
        <time>2020-06-27T09:34:28Z</time>
      </trkpt>
      <trkpt lat="44.82796" lon="4.66185">
        <ele>278.44</ele>
        <time>2020-06-27T09:34:47Z</time>
      </trkpt>
      <trkpt lat="44.82768" lon="4.66198">
        <ele>277</ele>
        <time>2020-06-27T09:35:06Z</time>
      </trkpt>
      <trkpt lat="44.82745" lon="4.66194">
        <ele>273.63</ele>
        <time>2020-06-27T09:35:25Z</time>
      </trkpt>
      <trkpt lat="44.82744" lon="4.66192">
        <ele>272.19</ele>
        <time>2020-06-27T09:35:27Z</time>
      </trkpt>
      <trkpt lat="44.82739" lon="4.66191">
        <ele>268.35</ele>
        <time>2020-06-27T09:35:34Z</time>
      </trkpt>
      <trkpt lat="44.8273" lon="4.66197">
        <ele>267.86</ele>
        <time>2020-06-27T09:35:41Z</time>
      </trkpt>
      <trkpt lat="44.82707" lon="4.6621">
        <ele>265.46</ele>
        <time>2020-06-27T09:35:57Z</time>
      </trkpt>
      <trkpt lat="44.82699" lon="4.6624">
        <ele>256.81</ele>
        <time>2020-06-27T09:36:13Z</time>
      </trkpt>
      <trkpt lat="44.82703" lon="4.66273">
        <ele>252.48</ele>
        <time>2020-06-27T09:36:31Z</time>
      </trkpt>
      <trkpt lat="44.82696" lon="4.66302">
        <ele>249.12</ele>
        <time>2020-06-27T09:36:48Z</time>
      </trkpt>
      <trkpt lat="44.82691" lon="4.66331">
        <ele>246.72</ele>
        <time>2020-06-27T09:37:03Z</time>
      </trkpt>
      <trkpt lat="44.82696" lon="4.6636">
        <ele>243.83</ele>
        <time>2020-06-27T09:37:18Z</time>
      </trkpt>
      <trkpt lat="44.82697" lon="4.66369">
        <ele>241.43</ele>
        <time>2020-06-27T09:37:28Z</time>
      </trkpt>
      <trkpt lat="44.82678" lon="4.66366">
        <ele>239.51</ele>
        <time>2020-06-27T09:37:45Z</time>
      </trkpt>
      <trkpt lat="44.82662" lon="4.66354">
        <ele>234.22</ele>
        <time>2020-06-27T09:38:01Z</time>
      </trkpt>
      <trkpt lat="44.82655" lon="4.66346">
        <ele>228.45</ele>
        <time>2020-06-27T09:38:14Z</time>
      </trkpt>
      <trkpt lat="44.82655" lon="4.66355">
        <ele>227.49</ele>
        <time>2020-06-27T09:38:19Z</time>
      </trkpt>
      <trkpt lat="44.82654" lon="4.66385">
        <ele>225.57</ele>
        <time>2020-06-27T09:38:36Z</time>
      </trkpt>
      <trkpt lat="44.82662" lon="4.66407">
        <ele>225.57</ele>
        <time>2020-06-27T09:38:49Z</time>
      </trkpt>
      <trkpt lat="44.82675" lon="4.66457">
        <ele>226.53</ele>
        <time>2020-06-27T09:39:12Z</time>
      </trkpt>
      <trkpt lat="44.82681" lon="4.66494">
        <ele>221.72</ele>
        <time>2020-06-27T09:39:30Z</time>
      </trkpt>
      <trkpt lat="44.8269" lon="4.66528">
        <ele>219.32</ele>
        <time>2020-06-27T09:39:48Z</time>
      </trkpt>
      <trkpt lat="44.82691" lon="4.66535">
        <ele>219.32</ele>
        <time>2020-06-27T09:39:52Z</time>
      </trkpt>
      <trkpt lat="44.82682" lon="4.66563">
        <ele>208.74</ele>
        <time>2020-06-27T09:40:09Z</time>
      </trkpt>
      <trkpt lat="44.82667" lon="4.66587">
        <ele>202.01</ele>
        <time>2020-06-27T09:40:26Z</time>
      </trkpt>
      <trkpt lat="44.82665" lon="4.6659">
        <ele>202.49</ele>
        <time>2020-06-27T09:40:28Z</time>
      </trkpt>
      <trkpt lat="44.82662" lon="4.66591">
        <ele>203.46</ele>
        <time>2020-06-27T09:40:30Z</time>
      </trkpt>
      <trkpt lat="44.82645" lon="4.66573">
        <ele>199.13</ele>
        <time>2020-06-27T09:40:49Z</time>
      </trkpt>
      <trkpt lat="44.82632" lon="4.66534">
        <ele>197.69</ele>
        <time>2020-06-27T09:41:11Z</time>
      </trkpt>
      <trkpt lat="44.82622" lon="4.66504">
        <ele>197.69</ele>
        <time>2020-06-27T09:41:27Z</time>
      </trkpt>
      <trkpt lat="44.82593" lon="4.66503">
        <ele>196.25</ele>
        <time>2020-06-27T09:41:43Z</time>
      </trkpt>
      <trkpt lat="44.82568" lon="4.66503">
        <ele>192.4</ele>
        <time>2020-06-27T09:42:00Z</time>
      </trkpt>
      <trkpt lat="44.82559" lon="4.6647">
        <ele>191.92</ele>
        <time>2020-06-27T09:42:18Z</time>
      </trkpt>
      <trkpt lat="44.82554" lon="4.66452">
        <ele>191.44</ele>
        <time>2020-06-27T09:42:27Z</time>
      </trkpt>
      <trkpt lat="44.8253" lon="4.66426">
        <ele>187.11</ele>
        <time>2020-06-27T09:42:48Z</time>
      </trkpt>
      <trkpt lat="44.82514" lon="4.66413">
        <ele>185.67</ele>
        <time>2020-06-27T09:42:58Z</time>
      </trkpt>
      <trkpt lat="44.82482" lon="4.66417">
        <ele>181.83</ele>
        <time>2020-06-27T09:43:17Z</time>
      </trkpt>
      <trkpt lat="44.82446" lon="4.66428">
        <ele>177.02</ele>
        <time>2020-06-27T09:43:40Z</time>
      </trkpt>
      <trkpt lat="44.82427" lon="4.66447">
        <ele>173.66</ele>
        <time>2020-06-27T09:43:56Z</time>
      </trkpt>
      <trkpt lat="44.82419" lon="4.66473">
        <ele>172.69</ele>
        <time>2020-06-27T09:44:12Z</time>
      </trkpt>
      <trkpt lat="44.82419" lon="4.66475">
        <ele>173.17</ele>
        <time>2020-06-27T09:44:13Z</time>
      </trkpt>
      <trkpt lat="44.8242" lon="4.66483">
        <ele>173.17</ele>
        <time>2020-06-27T09:44:17Z</time>
      </trkpt>
      <trkpt lat="44.82424" lon="4.66513">
        <ele>175.1</ele>
        <time>2020-06-27T09:44:34Z</time>
      </trkpt>
      <trkpt lat="44.82425" lon="4.66518">
        <ele>176.06</ele>
        <time>2020-06-27T09:44:37Z</time>
      </trkpt>
      <trkpt lat="44.82439" lon="4.66562">
        <ele>176.54</ele>
        <time>2020-06-27T09:44:59Z</time>
      </trkpt>
      <trkpt lat="44.82452" lon="4.66595">
        <ele>174.62</ele>
        <time>2020-06-27T09:45:17Z</time>
      </trkpt>
      <trkpt lat="44.82462" lon="4.66625">
        <ele>174.62</ele>
        <time>2020-06-27T09:45:35Z</time>
      </trkpt>
      <trkpt lat="44.8247" lon="4.66657">
        <ele>175.58</ele>
        <time>2020-06-27T09:45:51Z</time>
      </trkpt>
      <trkpt lat="44.8248" lon="4.66694">
        <ele>174.62</ele>
        <time>2020-06-27T09:46:07Z</time>
      </trkpt>
      <trkpt lat="44.82484" lon="4.66709">
        <ele>174.62</ele>
        <time>2020-06-27T09:46:15Z</time>
      </trkpt>
      <trkpt lat="44.82489" lon="4.66717">
        <ele>174.14</ele>
        <time>2020-06-27T09:46:19Z</time>
      </trkpt>
      <trkpt lat="44.82506" lon="4.66746">
        <ele>171.73</ele>
        <time>2020-06-27T09:46:34Z</time>
      </trkpt>
      <trkpt lat="44.82524" lon="4.66771">
        <ele>169.33</ele>
        <time>2020-06-27T09:46:51Z</time>
      </trkpt>
      <trkpt lat="44.82552" lon="4.66785">
        <ele>171.73</ele>
        <time>2020-06-27T09:47:12Z</time>
      </trkpt>
      <trkpt lat="44.82581" lon="4.66797">
        <ele>177.5</ele>
        <time>2020-06-27T09:47:32Z</time>
      </trkpt>
      <trkpt lat="44.82582" lon="4.66798">
        <ele>177.5</ele>
        <time>2020-06-27T09:47:33Z</time>
      </trkpt>
      <trkpt lat="44.82602" lon="4.66817">
        <ele>184.71</ele>
        <time>2020-06-27T09:47:51Z</time>
      </trkpt>
      <trkpt lat="44.8263" lon="4.66837">
        <ele>185.19</ele>
        <time>2020-06-27T09:48:12Z</time>
      </trkpt>
      <trkpt lat="44.82643" lon="4.66869">
        <ele>187.11</ele>
        <time>2020-06-27T09:48:32Z</time>
      </trkpt>
      <trkpt lat="44.82666" lon="4.66894">
        <ele>184.71</ele>
        <time>2020-06-27T09:48:50Z</time>
      </trkpt>
      <trkpt lat="44.82695" lon="4.66908">
        <ele>179.42</ele>
        <time>2020-06-27T09:49:12Z</time>
      </trkpt>
      <trkpt lat="44.82714" lon="4.66909">
        <ele>174.62</ele>
        <time>2020-06-27T09:49:24Z</time>
      </trkpt>
      <trkpt lat="44.82728" lon="4.66906">
        <ele>171.25</ele>
        <time>2020-06-27T09:49:40Z</time>
      </trkpt>
      <trkpt lat="44.82744" lon="4.66893">
        <ele>166.45</ele>
        <time>2020-06-27T09:49:56Z</time>
      </trkpt>
      <trkpt lat="44.82751" lon="4.669">
        <ele>166.93</ele>
        <time>2020-06-27T09:50:13Z</time>
      </trkpt>
      <trkpt lat="44.82752" lon="4.66937">
        <ele>168.85</ele>
        <time>2020-06-27T09:50:31Z</time>
      </trkpt>
      <trkpt lat="44.82751" lon="4.66939">
        <ele>168.85</ele>
        <time>2020-06-27T09:50:32Z</time>
      </trkpt>
      <trkpt lat="44.82745" lon="4.66965">
        <ele>169.81</ele>
        <time>2020-06-27T09:50:49Z</time>
      </trkpt>
      <trkpt lat="44.82746" lon="4.67014">
        <ele>175.1</ele>
        <time>2020-06-27T09:51:09Z</time>
      </trkpt>
      <trkpt lat="44.82744" lon="4.67036">
        <ele>172.21</ele>
        <time>2020-06-27T09:51:25Z</time>
      </trkpt>
      <trkpt lat="44.82752" lon="4.67069">
        <ele>177.98</ele>
        <time>2020-06-27T09:51:44Z</time>
      </trkpt>
      <trkpt lat="44.82762" lon="4.67112">
        <ele>174.14</ele>
        <time>2020-06-27T09:52:02Z</time>
      </trkpt>
      <trkpt lat="44.82776" lon="4.67157">
        <ele>170.29</ele>
        <time>2020-06-27T09:52:21Z</time>
      </trkpt>
      <trkpt lat="44.82784" lon="4.67185">
        <ele>165.48</ele>
        <time>2020-06-27T09:52:35Z</time>
      </trkpt>
      <trkpt lat="44.82792" lon="4.67214">
        <ele>161.16</ele>
        <time>2020-06-27T09:52:48Z</time>
      </trkpt>
      <trkpt lat="44.82793" lon="4.67217">
        <ele>161.16</ele>
        <time>2020-06-27T09:52:50Z</time>
      </trkpt>
      <trkpt lat="44.82805" lon="4.67246">
        <ele>161.16</ele>
        <time>2020-06-27T09:53:08Z</time>
      </trkpt>
      <trkpt lat="44.82819" lon="4.67275">
        <ele>157.79</ele>
        <time>2020-06-27T09:53:28Z</time>
      </trkpt>
      <trkpt lat="44.82825" lon="4.67286">
        <ele>156.35</ele>
        <time>2020-06-27T09:53:36Z</time>
      </trkpt>
      <trkpt lat="44.82832" lon="4.67307">
        <ele>158.27</ele>
        <time>2020-06-27T09:53:51Z</time>
      </trkpt>
      <trkpt lat="44.82843" lon="4.67331">
        <ele>157.31</ele>
        <time>2020-06-27T09:54:07Z</time>
      </trkpt>
      <trkpt lat="44.82853" lon="4.67357">
        <ele>158.75</ele>
        <time>2020-06-27T09:54:21Z</time>
      </trkpt>
      <trkpt lat="44.82867" lon="4.67391">
        <ele>157.79</ele>
        <time>2020-06-27T09:54:39Z</time>
      </trkpt>
      <trkpt lat="44.82878" lon="4.67424">
        <ele>157.31</ele>
        <time>2020-06-27T09:54:56Z</time>
      </trkpt>
      <trkpt lat="44.82891" lon="4.67455">
        <ele>157.79</ele>
        <time>2020-06-27T09:55:14Z</time>
      </trkpt>
      <trkpt lat="44.82897" lon="4.67484">
        <ele>158.75</ele>
        <time>2020-06-27T09:55:27Z</time>
      </trkpt>
      <trkpt lat="44.82913" lon="4.6752">
        <ele>160.2</ele>
        <time>2020-06-27T09:55:47Z</time>
      </trkpt>
      <trkpt lat="44.82921" lon="4.67565">
        <ele>160.2</ele>
        <time>2020-06-27T09:56:08Z</time>
      </trkpt>
      <trkpt lat="44.8293" lon="4.67596">
        <ele>160.2</ele>
        <time>2020-06-27T09:56:27Z</time>
      </trkpt>
      <trkpt lat="44.82914" lon="4.67608">
        <ele>159.72</ele>
        <time>2020-06-27T09:56:42Z</time>
      </trkpt>
      <trkpt lat="44.82913" lon="4.67615">
        <ele>158.27</ele>
        <time>2020-06-27T09:57:05Z</time>
      </trkpt>
      <trkpt lat="44.82908" lon="4.67608">
        <ele>159.72</ele>
        <time>2020-06-27T09:57:27Z</time>
      </trkpt>
      <trkpt lat="44.82911" lon="4.67611">
        <ele>159.72</ele>
        <time>2020-06-27T09:57:46Z</time>
      </trkpt>
      <trkpt lat="44.82914" lon="4.6761">
        <ele>159.72</ele>
        <time>2020-06-27T09:58:11Z</time>
      </trkpt>
      <trkpt lat="44.82904" lon="4.67608">
        <ele>159.24</ele>
        <time>2020-06-27T09:58:34Z</time>
      </trkpt>
      <trkpt lat="44.82906" lon="4.67607">
        <ele>157.79</ele>
        <time>2020-06-27T09:59:07Z</time>
      </trkpt>
      <trkpt lat="44.82905" lon="4.6761">
        <ele>158.27</ele>
        <time>2020-06-27T09:59:34Z</time>
      </trkpt>
      <trkpt lat="44.82902" lon="4.67614">
        <ele>160.68</ele>
        <time>2020-06-27T10:00:03Z</time>
      </trkpt>
      <trkpt lat="44.82903" lon="4.67609">
        <ele>162.12</ele>
        <time>2020-06-27T10:00:37Z</time>
      </trkpt>
      <trkpt lat="44.82912" lon="4.67606">
        <ele>152.03</ele>
        <time>2020-06-27T10:01:04Z</time>
      </trkpt>
      <trkpt lat="44.82911" lon="4.67611">
        <ele>152.51</ele>
        <time>2020-06-27T10:01:33Z</time>
      </trkpt>
      <trkpt lat="44.82912" lon="4.67609">
        <ele>154.43</ele>
        <time>2020-06-27T10:02:11Z</time>
      </trkpt>
      <trkpt lat="44.82904" lon="4.67606">
        <ele>153.95</ele>
        <time>2020-06-27T10:02:55Z</time>
      </trkpt>
      <trkpt lat="44.82905" lon="4.67608">
        <ele>155.87</ele>
        <time>2020-06-27T10:03:35Z</time>
      </trkpt>
      <trkpt lat="44.82908" lon="4.6761">
        <ele>156.83</ele>
        <time>2020-06-27T10:04:14Z</time>
      </trkpt>
      <trkpt lat="44.8291" lon="4.67615">
        <ele>157.79</ele>
        <time>2020-06-27T10:04:55Z</time>
      </trkpt>
      <trkpt lat="44.82908" lon="4.67613">
        <ele>159.72</ele>
        <time>2020-06-27T10:05:28Z</time>
      </trkpt>
      <trkpt lat="44.82904" lon="4.67614">
        <ele>162.12</ele>
        <time>2020-06-27T10:05:40Z</time>
      </trkpt>
      <trkpt lat="44.829" lon="4.67612">
        <ele>163.08</ele>
        <time>2020-06-27T10:05:49Z</time>
      </trkpt>
      <trkpt lat="44.82886" lon="4.67625">
        <ele>162.6</ele>
        <time>2020-06-27T10:06:02Z</time>
      </trkpt>
      <trkpt lat="44.82881" lon="4.67627">
        <ele>163.08</ele>
        <time>2020-06-27T10:06:06Z</time>
      </trkpt>
      <trkpt lat="44.82873" lon="4.67628">
        <ele>163.56</ele>
        <time>2020-06-27T10:06:12Z</time>
      </trkpt>
      <trkpt lat="44.82849" lon="4.67634">
        <ele>165.48</ele>
        <time>2020-06-27T10:06:29Z</time>
      </trkpt>
      <trkpt lat="44.82829" lon="4.6765">
        <ele>157.31</ele>
        <time>2020-06-27T10:06:45Z</time>
      </trkpt>
      <trkpt lat="44.82808" lon="4.6766">
        <ele>155.87</ele>
        <time>2020-06-27T10:07:01Z</time>
      </trkpt>
      <trkpt lat="44.82785" lon="4.67676">
        <ele>149.62</ele>
        <time>2020-06-27T10:07:18Z</time>
      </trkpt>
      <trkpt lat="44.82765" lon="4.67689">
        <ele>148.18</ele>
        <time>2020-06-27T10:07:34Z</time>
      </trkpt>
      <trkpt lat="44.82754" lon="4.67696">
        <ele>148.66</ele>
        <time>2020-06-27T10:07:47Z</time>
      </trkpt>
      <trkpt lat="44.82755" lon="4.677">
        <ele>150.58</ele>
        <time>2020-06-27T10:08:05Z</time>
      </trkpt>
      <trkpt lat="44.82754" lon="4.67695">
        <ele>148.66</ele>
        <time>2020-06-27T10:08:32Z</time>
      </trkpt>
      <trkpt lat="44.82754" lon="4.67697">
        <ele>151.06</ele>
        <time>2020-06-27T10:09:02Z</time>
      </trkpt>
      <trkpt lat="44.82752" lon="4.67697">
        <ele>152.51</ele>
        <time>2020-06-27T10:09:12Z</time>
      </trkpt>
      <trkpt lat="44.82749" lon="4.67697">
        <ele>148.66</ele>
        <time>2020-06-27T10:09:29Z</time>
      </trkpt>
      <trkpt lat="44.82729" lon="4.67706">
        <ele>150.1</ele>
        <time>2020-06-27T10:09:44Z</time>
      </trkpt>
      <trkpt lat="44.82709" lon="4.6772">
        <ele>149.62</ele>
        <time>2020-06-27T10:10:01Z</time>
      </trkpt>
      <trkpt lat="44.82679" lon="4.67735">
        <ele>151.06</ele>
        <time>2020-06-27T10:10:22Z</time>
      </trkpt>
      <trkpt lat="44.82653" lon="4.67748">
        <ele>150.58</ele>
        <time>2020-06-27T10:10:41Z</time>
      </trkpt>
      <trkpt lat="44.8265" lon="4.67749">
        <ele>150.58</ele>
        <time>2020-06-27T10:10:44Z</time>
      </trkpt>
      <trkpt lat="44.82648" lon="4.67752">
        <ele>150.58</ele>
        <time>2020-06-27T10:10:47Z</time>
      </trkpt>
      <trkpt lat="44.82633" lon="4.67776">
        <ele>150.1</ele>
        <time>2020-06-27T10:11:05Z</time>
      </trkpt>
      <trkpt lat="44.8263" lon="4.67817">
        <ele>151.54</ele>
        <time>2020-06-27T10:11:24Z</time>
      </trkpt>
      <trkpt lat="44.8263" lon="4.67864">
        <ele>152.51</ele>
        <time>2020-06-27T10:11:47Z</time>
      </trkpt>
      <trkpt lat="44.8263" lon="4.67904">
        <ele>152.99</ele>
        <time>2020-06-27T10:12:06Z</time>
      </trkpt>
      <trkpt lat="44.82637" lon="4.67935">
        <ele>153.47</ele>
        <time>2020-06-27T10:12:24Z</time>
      </trkpt>
      <trkpt lat="44.82641" lon="4.67951">
        <ele>152.99</ele>
        <time>2020-06-27T10:12:36Z</time>
      </trkpt>
      <trkpt lat="44.82643" lon="4.67985">
        <ele>151.54</ele>
        <time>2020-06-27T10:12:55Z</time>
      </trkpt>
      <trkpt lat="44.82643" lon="4.67993">
        <ele>152.03</ele>
        <time>2020-06-27T10:12:59Z</time>
      </trkpt>
      <trkpt lat="44.82643" lon="4.67996">
        <ele>151.54</ele>
        <time>2020-06-27T10:13:01Z</time>
      </trkpt>
      <trkpt lat="44.8264" lon="4.68003">
        <ele>151.54</ele>
        <time>2020-06-27T10:13:06Z</time>
      </trkpt>
      <trkpt lat="44.82643" lon="4.68022">
        <ele>151.54</ele>
        <time>2020-06-27T10:13:16Z</time>
      </trkpt>
      <trkpt lat="44.82645" lon="4.68026">
        <ele>151.54</ele>
        <time>2020-06-27T10:13:19Z</time>
      </trkpt>
      <trkpt lat="44.82647" lon="4.68036">
        <ele>151.06</ele>
        <time>2020-06-27T10:13:25Z</time>
      </trkpt>
      <trkpt lat="44.82649" lon="4.68043">
        <ele>149.62</ele>
        <time>2020-06-27T10:13:39Z</time>
      </trkpt>
      <trkpt lat="44.82645" lon="4.68047">
        <ele>150.1</ele>
        <time>2020-06-27T10:13:48Z</time>
      </trkpt>
      <trkpt lat="44.82632" lon="4.68043">
        <ele>151.54</ele>
        <time>2020-06-27T10:14:03Z</time>
      </trkpt>
      <trkpt lat="44.82618" lon="4.68025">
        <ele>150.1</ele>
        <time>2020-06-27T10:14:17Z</time>
      </trkpt>
      <trkpt lat="44.82616" lon="4.6802">
        <ele>150.58</ele>
        <time>2020-06-27T10:14:29Z</time>
      </trkpt>
      <trkpt lat="44.82616" lon="4.6802">
        <ele>152.03</ele>
        <time>2020-06-27T10:14:45Z</time>
      </trkpt>
      <trkpt lat="44.82615" lon="4.68019">
        <ele>152.99</ele>
        <time>2020-06-27T10:15:03Z</time>
      </trkpt>
      <trkpt lat="44.82615" lon="4.6802">
        <ele>154.91</ele>
        <time>2020-06-27T10:15:34Z</time>
      </trkpt>
      <trkpt lat="44.82614" lon="4.6802">
        <ele>155.39</ele>
        <time>2020-06-27T10:15:53Z</time>
      </trkpt>
      <trkpt lat="44.82615" lon="4.6802">
        <ele>154.91</ele>
        <time>2020-06-27T10:16:23Z</time>
      </trkpt>
      <trkpt lat="44.82615" lon="4.68019">
        <ele>155.87</ele>
        <time>2020-06-27T10:16:48Z</time>
      </trkpt>
      <trkpt lat="44.82615" lon="4.6802">
        <ele>156.35</ele>
        <time>2020-06-27T10:17:17Z</time>
      </trkpt>
    </trkseg>
  </trk>
</gpx>